< < Back
Terminal Aerodrome Forecast


Current Version              Previous Versions:   1  2  3  4  5  6  7  8  9  

Terminal Aerodrome Forecast

495
FTUS44 KMRX 241116 AAA
TAFTYS
TAF AMD
KTYS 241116Z 2411/2506 22003KT P6SM -RA BKN015 OVC070
     FM241400 22005KT P6SM BKN035
     FM241800 25010G20KT P6SM VCTS BKN050CB
     FM250300 VRB03KT P6SM SCT250=

Latest METAR

619
SAUS80 KWBC 250400 RRF
MTRTYS
METAR KTYS 250453Z 00000KT 10SM FEW200 23/20 A3007 RMK AO2 SLP169
T02330200 403110211


USA.gov is the U.S. government's official web portal to all federal, state and local government web resources and services.